Time;durP1;ratioP1;P1;durP2;ratioP2;P2;SDS_P1;SDS_P2;PMS_P1;PMS_P2;Temp;Humidity;BMP_temperature;BMP_pressure;BME280_temperature;BME280_humidity;BME280_pressure;Samples;Min_cycle;Max_cycle;Signal;HPM_P1;HPM_P2
2021/12/14 00:01:40;;;;;;;;;;;3.60;99.90;;;;;;5015131;28;19905;-73
2021/12/14 00:04:05;;;;;;;;;;;3.50;99.90;;;;;;5029998;28;19905;-73
2021/12/14 00:06:31;;;;;;;;;;;3.50;99.90;;;;;;5014619;28;19909;-73
2021/12/14 00:09:00;;;;;;;;;;;3.50;99.90;;;;;;5014845;28;19912;-72
2021/12/14 00:11:46;;;;;;;;;;;3.40;99.90;;;;;;5014577;28;19912;-73
2021/12/14 00:16:49;;;;;;;;;;;3.50;99.90;;;;;;5014424;28;19913;-73
2021/12/14 00:19:15;;;;;;;;;;;3.40;99.90;;;;;;5013208;28;19912;-73
2021/12/14 00:21:44;;;;;;;;;;;3.40;99.90;;;;;;5029366;28;19921;-74
2021/12/14 00:24:11;;;;;;;;;;;3.20;99.90;;;;;;5029666;28;19913;-73
2021/12/14 00:26:48;;;;;;;;;;;3.00;99.90;;;;;;5014196;28;19910;-73
2021/12/14 00:29:31;;;;;;;;;;;3.10;99.90;;;;;;5014302;28;19999;-74
2021/12/14 00:31:58;;;;;;;;;;;3.10;99.90;;;;;;5029261;28;20258;-73
2021/12/14 00:34:35;;;;;;;;;;;3.30;99.90;;;;;;5014245;28;19996;-74
2021/12/14 00:37:01;;;;;;;;;;;3.20;99.90;;;;;;5012495;28;19916;-73
2021/12/14 00:39:27;;;;;;;;;;;3.30;99.90;;;;;;5029331;28;19905;-74
2021/12/14 00:41:52;;;;;;;;;;;3.40;99.90;;;;;;5029274;28;20332;-73
2021/12/14 00:44:18;;;;;;;;;;;3.30;99.90;;;;;;5012703;28;19913;-73
2021/12/14 00:46:44;;;;;;;;;;;3.00;99.90;;;;;;5013495;28;19916;-73
2021/12/14 00:49:10;;;;;;;;;;;3.10;99.90;;;;;;5013836;28;20354;-73
2021/12/14 00:51:36;;;;;;;;;;;3.10;99.90;;;;;;5013979;28;19905;-74
2021/12/14 00:54:04;;;;;;;;;;;3.20;99.90;;;;;;5013639;28;20005;-73
2021/12/14 00:56:33;;;;;;;;;;;3.20;99.90;;;;;;5013634;28;20361;-73
2021/12/14 00:59:00;;;;;;;;;;;2.90;99.90;;;;;;5012412;28;19913;-73
2021/12/14 01:01:28;;;;;;;;;;;3.00;99.90;;;;;;5013578;28;19912;-73
2021/12/14 01:03:56;;;;;;;;;;;3.00;99.90;;;;;;5013454;28;19909;-73
2021/12/14 01:06:24;;;;;;;;;;;2.90;99.90;;;;;;5013420;28;20276;-73
2021/12/14 01:08:50;;;;;;;;;;;2.90;99.90;;;;;;5013641;28;20372;-73
2021/12/14 01:11:22;;;;;;;;;;;2.80;99.90;;;;;;5012259;28;19975;-74
2021/12/14 01:14:02;;;;;;;;;;;2.90;99.90;;;;;;5012333;28;19912;-73
2021/12/14 01:16:35;;;;;;;;;;;3.00;99.90;;;;;;5028526;28;19905;-73
2021/12/14 01:19:16;;;;;;;;;;;3.10;99.90;;;;;;5028559;28;19910;-73
2021/12/14 01:22:12;;;;;;;;;;;3.10;99.90;;;;;;5052154;22;19978;-92
2021/12/14 01:27:20;;;;;;;;;;;3.20;99.90;;;;;;5032359;28;20374;-92
2021/12/14 01:29:49;;;;;;;;;;;3.30;99.90;;;;;;5016162;28;20281;-92
2021/12/14 01:32:16;;;;;;;;;;;3.50;99.90;;;;;;5016043;28;19940;-92
2021/12/14 01:34:42;;;;;;;;;;;3.50;99.90;;;;;;5016287;28;19958;-92
2021/12/14 01:37:12;;;;;;;;;;;3.50;99.90;;;;;;5015772;28;20012;-91
2021/12/14 01:42:08;;;;;;;;;;;3.20;99.90;;;;;;5032987;28;19905;-92
2021/12/14 01:44:36;;;;;;;;;;;3.10;99.90;;;;;;5016180;28;20003;-92
2021/12/14 01:47:08;;;;;;;;;;;3.00;99.90;;;;;;5015549;28;19958;-91
2021/12/14 01:49:34;;;;;;;;;;;3.00;99.90;;;;;;5015434;28;20420;-92
2021/12/14 01:52:02;;;;;;;;;;;2.70;99.90;;;;;;5015737;28;19948;-91
2021/12/14 01:54:30;;;;;;;;;;;2.80;99.90;;;;;;5016164;28;19920;-91
2021/12/14 01:56:56;;;;;;;;;;;2.90;99.90;;;;;;5015840;28;20381;-92
2021/12/14 01:59:27;;;;;;;;;;;2.90;99.90;;;;;;5016393;28;19996;-92
2021/12/14 02:02:07;;;;;;;;;;;2.90;99.90;;;;;;5015887;28;19924;-91
2021/12/14 02:04:33;;;;;;;;;;;2.80;99.90;;;;;;5016295;28;19905;-91
2021/12/14 02:07:01;;;;;;;;;;;2.70;99.90;;;;;;5016063;28;19916;-92
2021/12/14 02:09:27;;;;;;;;;;;2.40;99.90;;;;;;5015955;28;19944;-92
2021/12/14 02:11:55;;;;;;;;;;;2.50;99.90;;;;;;5015428;28;19951;-92
2021/12/14 02:14:21;;;;;;;;;;;2.40;99.90;;;;;;5015464;28;20000;-91
2021/12/14 02:16:48;;;;;;;;;;;2.30;99.90;;;;;;5015352;28;19905;-92
2021/12/14 02:19:15;;;;;;;;;;;2.30;99.90;;;;;;5015627;28;19905;-92
2021/12/14 02:21:45;;;;;;;;;;;2.40;99.90;;;;;;5015349;28;19913;-92
2021/12/14 02:24:11;;;;;;;;;;;2.50;99.90;;;;;;5015758;28;19906;-91
2021/12/14 02:26:38;;;;;;;;;;;2.40;99.90;;;;;;5015106;28;19909;-91
2021/12/14 02:29:06;;;;;;;;;;;2.30;99.90;;;;;;5015485;28;20266;-92
2021/12/14 02:31:33;;;;;;;;;;;2.50;99.90;;;;;;5015990;28;19913;-91
2021/12/14 02:34:02;;;;;;;;;;;2.40;99.90;;;;;;5017903;28;19912;-92
2021/12/14 02:36:48;;;;;;;;;;;2.30;99.90;;;;;;5017203;28;19905;-92
2021/12/14 02:42:12;;;;;;;;;;;2.30;99.90;;;;;;4980297;28;20039;-91
2021/12/14 02:44:38;;;;;;;;;;;2.40;99.90;;;;;;5015711;28;19956;-92
2021/12/14 02:47:09;;;;;;;;;;;2.30;99.90;;;;;;5015294;28;19963;-91
2021/12/14 02:49:36;;;;;;;;;;;2.20;99.90;;;;;;5015455;28;19955;-92
2021/12/14 02:52:05;;;;;;;;;;;2.10;99.90;;;;;;5015323;28;19909;-91
2021/12/14 02:54:36;;;;;;;;;;;2.10;99.90;;;;;;5022287;28;19905;-92
2021/12/14 02:57:04;;;;;;;;;;;2.10;99.90;;;;;;5036592;28;19909;-92
2021/12/14 02:59:31;;;;;;;;;;;1.90;99.90;;;;;;5033779;28;19943;-91
2021/12/14 03:02:03;;;;;;;;;;;1.80;99.90;;;;;;5022013;28;19912;-92
2021/12/14 03:04:31;;;;;;;;;;;1.60;99.90;;;;;;5019289;28;19967;-92
2021/12/14 03:06:58;;;;;;;;;;;1.60;99.90;;;;;;5018544;28;20362;-92
2021/12/14 03:12:04;;;;;;;;;;;1.40;99.90;;;;;;5035308;28;20381;-92
2021/12/14 03:14:30;;;;;;;;;;;1.50;99.90;;;;;;5018601;28;19913;-92
2021/12/14 03:16:56;;;;;;;;;;;1.60;99.90;;;;;;5018728;28;19905;-91
2021/12/14 03:19:22;;;;;;;;;;;1.80;99.90;;;;;;5018711;28;19909;-91
2021/12/14 03:21:49;;;;;;;;;;;1.80;99.90;;;;;;5018379;28;19971;-92
2021/12/14 03:24:15;;;;;;;;;;;1.80;99.90;;;;;;5018628;28;19955;-92
2021/12/14 03:26:44;;;;;;;;;;;1.90;99.90;;;;;;5018342;28;19925;-92
2021/12/14 03:29:12;;;;;;;;;;;2.10;99.90;;;;;;5018466;28;19912;-92
2021/12/14 03:31:42;;;;;;;;;;;2.20;99.90;;;;;;5018178;28;19909;-91
2021/12/14 03:34:10;;;;;;;;;;;2.20;99.90;;;;;;5018475;28;19995;-91
2021/12/14 03:36:41;;;;;;;;;;;2.30;99.90;;;;;;5018009;28;20423;-92
2021/12/14 03:39:12;;;;;;;;;;;2.20;99.90;;;;;;5018154;28;19948;-92
2021/12/14 03:41:43;;;;;;;;;;;2.20;99.90;;;;;;5018112;28;19905;-91
2021/12/14 03:44:12;;;;;;;;;;;2.20;99.90;;;;;;5018147;28;19964;-91
2021/12/14 03:46:46;;;;;;;;;;;2.10;99.90;;;;;;5017908;28;20405;-91
2021/12/14 03:49:12;;;;;;;;;;;2.20;99.90;;;;;;5018411;28;19932;-91
2021/12/14 03:51:39;;;;;;;;;;;2.30;99.90;;;;;;5017991;28;19905;-91
2021/12/14 03:54:04;;;;;;;;;;;2.30;99.90;;;;;;5018098;28;19905;-92
2021/12/14 03:56:30;;;;;;;;;;;2.40;99.90;;;;;;5017923;28;19911;-92
2021/12/14 03:58:56;;;;;;;;;;;2.40;99.90;;;;;;5017904;28;19994;-91
2021/12/14 04:01:24;;;;;;;;;;;2.40;99.90;;;;;;5017879;28;19909;-91
2021/12/14 04:03:52;;;;;;;;;;;2.50;99.90;;;;;;5017608;28;19904;-92
2021/12/14 04:06:17;;;;;;;;;;;2.60;99.90;;;;;;5017402;28;20263;-92
2021/12/14 04:08:44;;;;;;;;;;;2.80;99.90;;;;;;5017811;28;19955;-92
2021/12/14 04:11:10;;;;;;;;;;;2.90;99.90;;;;;;5017157;28;19905;-92
2021/12/14 04:13:39;;;;;;;;;;;2.90;99.90;;;;;;5017554;28;19955;-91
2021/12/14 04:16:06;;;;;;;;;;;2.80;99.90;;;;;;5017080;28;19908;-91
2021/12/14 04:18:32;;;;;;;;;;;2.60;99.90;;;;;;5017920;28;20023;-91
2021/12/14 04:21:01;;;;;;;;;;;2.70;99.90;;;;;;5017576;28;19920;-92
2021/12/14 04:23:33;;;;;;;;;;;2.80;99.90;;;;;;5017544;28;19933;-92
2021/12/14 04:26:00;;;;;;;;;;;3.00;99.90;;;;;;5017316;28;19908;-92
2021/12/14 04:28:28;;;;;;;;;;;2.80;99.90;;;;;;5017671;28;20004;-92
2021/12/14 04:30:54;;;;;;;;;;;2.50;99.90;;;;;;5017212;28;19913;-92
2021/12/14 04:33:25;;;;;;;;;;;2.10;99.90;;;;;;5017266;28;19909;-92
2021/12/14 04:35:50;;;;;;;;;;;1.70;99.90;;;;;;5017203;28;19936;-91
2021/12/14 04:38:23;;;;;;;;;;;1.40;99.90;;;;;;5017360;28;20380;-91
2021/12/14 04:51:59;;;;;;;;;;;1.90;99.90;;;;;;5033537;28;19908;-92
2021/12/14 04:54:27;;;;;;;;;;;1.90;99.90;;;;;;5016816;28;19912;-92
2021/12/14 04:56:53;;;;;;;;;;;2.00;99.90;;;;;;5017201;28;19959;-92
2021/12/14 04:59:23;;;;;;;;;;;2.10;99.90;;;;;;5017528;28;20274;-91
2021/12/14 05:01:49;;;;;;;;;;;2.10;99.90;;;;;;5016625;28;19912;-92
2021/12/14 05:04:18;;;;;;;;;;;2.10;99.90;;;;;;5017511;28;19905;-91
2021/12/14 05:06:56;;;;;;;;;;;2.00;99.90;;;;;;5016767;28;20555;-91
2021/12/14 05:09:29;;;;;;;;;;;1.90;99.90;;;;;;5016930;28;19916;-91
2021/12/14 05:12:05;;;;;;;;;;;1.90;99.90;;;;;;5016637;28;19992;-91
2021/12/14 05:14:32;;;;;;;;;;;1.90;99.90;;;;;;5017128;28;20384;-92
2021/12/14 05:17:00;;;;;;;;;;;2.00;99.90;;;;;;5016640;28;19909;-91
2021/12/14 05:19:27;;;;;;;;;;;1.90;99.90;;;;;;5016678;28;19909;-92
2021/12/14 05:21:53;;;;;;;;;;;1.70;99.90;;;;;;5016327;28;19919;-92
2021/12/14 05:24:23;;;;;;;;;;;1.70;99.90;;;;;;5015713;28;19912;-91
2021/12/14 05:26:54;;;;;;;;;;;1.70;99.90;;;;;;5016920;28;19951;-91
2021/12/14 05:29:22;;;;;;;;;;;1.80;99.90;;;;;;5016645;28;19912;-91
2021/12/14 05:31:49;;;;;;;;;;;1.90;99.90;;;;;;5016424;28;19912;-91
2021/12/14 05:34:14;;;;;;;;;;;1.90;99.90;;;;;;5016278;28;19909;-91
2021/12/14 05:36:42;;;;;;;;;;;2.00;99.90;;;;;;5016653;28;19911;-91
2021/12/14 05:44:35;;;;;;;;;;;2.30;99.90;;;;;;5053454;28;19920;-92
2021/12/14 05:47:03;;;;;;;;;;;2.40;99.90;;;;;;5041111;28;19912;-91
2021/12/14 05:49:30;;;;;;;;;;;2.40;99.90;;;;;;5040760;28;19908;-92
2021/12/14 05:51:59;;;;;;;;;;;2.30;99.90;;;;;;5040886;28;19897;-91
2021/12/14 05:54:27;;;;;;;;;;;2.30;99.90;;;;;;5041015;28;19960;-92
2021/12/14 05:56:53;;;;;;;;;;;2.40;99.90;;;;;;5040325;28;19904;-92
2021/12/14 05:59:20;;;;;;;;;;;2.40;99.90;;;;;;5021049;28;20362;-92
2021/12/14 06:01:46;;;;;;;;;;;2.50;99.90;;;;;;5016322;28;20281;-92
2021/12/14 06:04:12;;;;;;;;;;;2.50;99.90;;;;;;5016785;28;20011;-91
2021/12/14 06:06:40;;;;;;;;;;;2.50;99.90;;;;;;5016114;28;19913;-92
2021/12/14 06:09:09;;;;;;;;;;;2.40;99.90;;;;;;5017623;28;19992;-92
2021/12/14 06:11:35;;;;;;;;;;;2.50;99.90;;;;;;5016410;28;19959;-89
2021/12/14 06:14:02;;;;;;;;;;;2.50;99.90;;;;;;5016308;28;20475;-90
2021/12/14 06:16:30;;;;;;;;;;;2.60;99.90;;;;;;5016061;28;20000;-90
2021/12/14 06:19:14;;;;;;;;;;;2.50;99.90;;;;;;5015988;28;19912;-90
2021/12/14 06:21:40;;;;;;;;;;;2.50;99.90;;;;;;5015833;28;19964;-90
2021/12/14 06:24:07;;;;;;;;;;;2.40;99.90;;;;;;5016558;28;19912;-90
2021/12/14 06:26:41;;;;;;;;;;;2.50;99.90;;;;;;5030587;28;19919;-90
2021/12/14 06:29:08;;;;;;;;;;;2.40;99.90;;;;;;5022342;28;19905;-90
2021/12/14 06:31:34;;;;;;;;;;;2.50;99.90;;;;;;5015136;28;19909;-90
2021/12/14 06:34:20;;;;;;;;;;;2.50;99.90;;;;;;5016569;28;20281;-90
2021/12/14 06:37:18;;;;;;;;;;;2.40;99.90;;;;;;5020177;28;19928;-89
2021/12/14 06:39:56;;;;;;;;;;;2.50;99.90;;;;;;5015367;28;19966;-89
2021/12/14 06:42:22;;;;;;;;;;;2.40;99.90;;;;;;5009283;28;19948;-90
2021/12/14 06:44:47;;;;;;;;;;;2.50;99.90;;;;;;5011564;28;19912;-91
2021/12/14 06:47:28;;;;;;;;;;;2.40;99.90;;;;;;5005608;28;19910;-90
2021/12/14 06:49:56;;;;;;;;;;;2.40;99.90;;;;;;5001695;28;19905;-91
2021/12/14 06:52:22;;;;;;;;;;;2.40;99.90;;;;;;5040969;28;19909;-90
2021/12/14 06:54:47;;;;;;;;;;;2.40;99.90;;;;;;5025011;28;19912;-90
2021/12/14 06:57:13;;;;;;;;;;;2.40;99.90;;;;;;5000701;28;19913;-90
2021/12/14 06:59:39;;;;;;;;;;;2.30;99.90;;;;;;5000606;28;19935;-90
2021/12/14 07:02:07;;;;;;;;;;;2.30;99.90;;;;;;5000771;28;19936;-90
2021/12/14 07:04:34;;;;;;;;;;;2.30;99.90;;;;;;5009266;28;19928;-90
2021/12/14 07:07:04;;;;;;;;;;;2.40;99.90;;;;;;5021476;28;19959;-91
2021/12/14 07:09:50;;;;;;;;;;;2.50;99.90;;;;;;5020600;28;19905;-91
2021/12/14 07:12:17;;;;;;;;;;;2.50;99.90;;;;;;5019495;28;20349;-90
2021/12/14 07:15:03;;;;;;;;;;;2.50;99.90;;;;;;5019892;28;19906;-90
2021/12/14 07:17:30;;;;;;;;;;;2.60;99.90;;;;;;5018902;28;20325;-91
2021/12/14 07:20:01;;;;;;;;;;;2.70;99.90;;;;;;5039440;28;20412;-91
2021/12/14 07:22:35;;;;;;;;;;;2.70;99.90;;;;;;5033877;28;20004;-92
2021/12/14 07:25:21;;;;;;;;;;;2.70;99.90;;;;;;5020256;28;20354;-92
2021/12/14 07:27:47;;;;;;;;;;;2.60;99.90;;;;;;5019428;28;19909;-91
2021/12/14 07:30:30;;;;;;;;;;;2.70;99.90;;;;;;5019123;28;19905;-92
2021/12/14 07:32:59;;;;;;;;;;;2.80;99.90;;;;;;5004444;28;19909;-92
2021/12/14 07:35:32;;;;;;;;;;;2.90;99.90;;;;;;5008121;28;20294;-92
2021/12/14 07:38:35;;;;;;;;;;;3.00;99.90;;;;;;5011884;28;19913;-91
2021/12/14 07:41:18;;;;;;;;;;;3.00;99.90;;;;;;5003936;28;19905;-92
2021/12/14 07:43:49;;;;;;;;;;;3.10;99.90;;;;;;5018310;28;19909;-91
2021/12/14 07:46:17;;;;;;;;;;;3.10;99.90;;;;;;5018193;28;19912;-91
2021/12/14 07:48:49;;;;;;;;;;;3.20;99.90;;;;;;5019218;28;19988;-92
2021/12/14 07:51:16;;;;;;;;;;;3.30;99.90;;;;;;5019898;28;19916;-92
2021/12/14 07:53:44;;;;;;;;;;;3.50;99.90;;;;;;5019725;28;19909;-91
2021/12/14 07:56:22;;;;;;;;;;;3.50;99.90;;;;;;5013471;28;19909;-91
2021/12/14 07:58:48;;;;;;;;;;;3.50;99.90;;;;;;5029757;28;19913;-91
2021/12/14 08:01:17;;;;;;;;;;;3.50;99.90;;;;;;5018212;28;20521;-92
2021/12/14 08:03:42;;;;;;;;;;;3.60;99.90;;;;;;5019037;28;19982;-92
2021/12/14 08:06:10;;;;;;;;;;;3.60;99.90;;;;;;5024024;28;19905;-92
2021/12/14 08:13:57;;;;;;;;;;;3.80;99.90;;;;;;5035996;28;19905;-92
2021/12/14 08:16:22;;;;;;;;;;;3.80;99.90;;;;;;5018189;28;19935;-92
2021/12/14 08:18:48;;;;;;;;;;;3.90;99.90;;;;;;5017875;28;20444;-92
2021/12/14 08:21:19;;;;;;;;;;;4.00;99.90;;;;;;5017601;28;19936;-92
2021/12/14 08:23:50;;;;;;;;;;;4.30;99.90;;;;;;5017572;28;19912;-92
2021/12/14 08:26:18;;;;;;;;;;;4.40;99.90;;;;;;5017558;28;19917;-90
2021/12/14 08:28:45;;;;;;;;;;;4.60;99.90;;;;;;5016699;28;19909;-90
2021/12/14 08:31:11;;;;;;;;;;;4.60;99.90;;;;;;5016368;28;19913;-90
2021/12/14 08:33:37;;;;;;;;;;;4.70;99.90;;;;;;5019327;28;19975;-92
2021/12/14 08:36:04;;;;;;;;;;;4.90;99.90;;;;;;5015798;28;19931;-92
2021/12/14 08:38:33;;;;;;;;;;;5.00;99.90;;;;;;5023014;28;19923;-92
2021/12/14 08:41:07;;;;;;;;;;;5.00;99.90;;;;;;5036742;28;19965;-90
2021/12/14 08:43:35;;;;;;;;;;;5.00;99.90;;;;;;5056466;28;19916;-92
2021/12/14 08:46:03;;;;;;;;;;;5.10;99.90;;;;;;5030988;28;19916;-92
2021/12/14 08:48:30;;;;;;;;;;;4.90;99.90;;;;;;5016769;28;19987;-91
2021/12/14 08:50:59;;;;;;;;;;;4.80;99.90;;;;;;5017624;28;19908;-91
2021/12/14 08:53:26;;;;;;;;;;;4.70;99.90;;;;;;5018986;28;20289;-91
2021/12/14 08:55:55;;;;;;;;;;;4.60;99.90;;;;;;5016504;28;19975;-92
2021/12/14 08:58:20;;;;;;;;;;;4.70;99.90;;;;;;5015694;28;20281;-91
2021/12/14 09:00:51;;;;;;;;;;;4.60;99.90;;;;;;5016132;28;19905;-91
2021/12/14 09:03:23;;;;;;;;;;;4.70;99.90;;;;;;5015972;28;19909;-92
2021/12/14 09:05:49;;;;;;;;;;;4.80;99.90;;;;;;5014702;28;19996;-91
2021/12/14 09:08:17;;;;;;;;;;;4.80;99.90;;;;;;5017562;28;20284;-92
2021/12/14 09:10:45;;;;;;;;;;;4.80;99.90;;;;;;5017506;28;19919;-91
2021/12/14 09:13:12;;;;;;;;;;;4.90;99.90;;;;;;5015206;28;20361;-92
2021/12/14 09:15:43;;;;;;;;;;;5.20;99.90;;;;;;5018442;28;19905;-92
2021/12/14 09:18:09;;;;;;;;;;;5.40;99.90;;;;;;5015451;28;20008;-92
2021/12/14 09:20:39;;;;;;;;;;;5.70;99.90;;;;;;5015754;28;19916;-91
2021/12/14 09:23:07;;;;;;;;;;;5.90;99.90;;;;;;5015698;28;19912;-91
2021/12/14 09:25:33;;;;;;;;;;;6.20;99.90;;;;;;5021892;28;19905;-92
2021/12/14 09:28:00;;;;;;;;;;;6.50;99.90;;;;;;5016164;28;20357;-91
2021/12/14 09:30:27;;;;;;;;;;;6.70;99.90;;;;;;5023386;28;19905;-89
2021/12/14 09:32:53;;;;;;;;;;;6.80;99.90;;;;;;5020967;28;19909;-91
2021/12/14 09:35:21;;;;;;;;;;;7.10;99.90;;;;;;5016521;28;19911;-91
2021/12/14 09:37:47;;;;;;;;;;;7.10;99.90;;;;;;5016893;28;19911;-92
2021/12/14 09:40:27;;;;;;;;;;;6.80;99.90;;;;;;5016536;28;19909;-91
2021/12/14 09:42:54;;;;;;;;;;;6.40;99.90;;;;;;5016760;28;19909;-91
2021/12/14 09:45:23;;;;;;;;;;;6.20;99.90;;;;;;5015754;28;19974;-91
2021/12/14 09:47:49;;;;;;;;;;;6.10;99.90;;;;;;5011616;28;20258;-90
2021/12/14 09:50:17;;;;;;;;;;;6.20;99.90;;;;;;5015383;28;20453;-91
2021/12/14 09:52:43;;;;;;;;;;;6.40;99.90;;;;;;5015471;28;19987;-90
2021/12/14 09:55:13;;;;;;;;;;;6.80;99.90;;;;;;5015464;28;20373;-91
2021/12/14 09:57:42;;;;;;;;;;;7.20;99.90;;;;;;5014944;28;19905;-91
2021/12/14 10:00:19;;;;;;;;;;;7.60;99.90;;;;;;5012530;28;19942;-91
2021/12/14 10:02:46;;;;;;;;;;;8.10;99.90;;;;;;5015478;28;19955;-91
2021/12/14 10:05:38;;;;;;;;;;;8.60;99.90;;;;;;5018977;28;19909;-90
2021/12/14 10:08:14;;;;;;;;;;;8.90;99.90;;;;;;5011369;28;19909;-91
2021/12/14 10:10:43;;;;;;;;;;;8.80;99.90;;;;;;5015329;28;19909;-92
2021/12/14 10:13:11;;;;;;;;;;;9.00;99.90;;;;;;5015967;28;19905;-91
2021/12/14 10:15:42;;;;;;;;;;;9.40;99.90;;;;;;5015844;28;19913;-91
2021/12/14 10:18:13;;;;;;;;;;;9.60;99.90;;;;;;5015041;28;19909;-92
2021/12/14 10:20:44;;;;;;;;;;;10.00;99.90;;;;;;5018172;28;19916;-91
2021/12/14 10:23:14;;;;;;;;;;;9.80;99.90;;;;;;5015301;28;19905;-91
2021/12/14 10:25:40;;;;;;;;;;;9.80;99.90;;;;;;5014519;28;19905;-91
2021/12/14 10:28:06;;;;;;;;;;;10.20;99.90;;;;;;5014076;28;19916;-92
2021/12/14 10:30:35;;;;;;;;;;;10.50;98.60;;;;;;5014513;28;19959;-91
2021/12/14 10:33:01;;;;;;;;;;;10.40;97.30;;;;;;5017230;28;19992;-91
2021/12/14 10:35:33;;;;;;;;;;;9.80;99.10;;;;;;5014536;28;20358;-91
2021/12/14 10:38:17;;;;;;;;;;;9.40;99.90;;;;;;5014496;28;19905;-92
2021/12/14 10:43:28;;;;;;;;;;;10.20;99.40;;;;;;5028211;28;20350;-92
2021/12/14 10:45:59;;;;;;;;;;;10.80;98.20;;;;;;5014011;28;19919;-92
2021/12/14 10:48:28;;;;;;;;;;;11.50;95.50;;;;;;5014718;28;20000;-91
2021/12/14 10:50:55;;;;;;;;;;;12.30;93.60;;;;;;5017638;28;20317;-92
2021/12/14 10:53:21;;;;;;;;;;;13.10;90.70;;;;;;5014042;28;19905;-92
2021/12/14 10:55:52;;;;;;;;;;;13.80;86.70;;;;;;5013562;28;19942;-91
2021/12/14 10:58:19;;;;;;;;;;;14.10;85.10;;;;;;5014652;28;20453;-91
2021/12/14 11:00:49;;;;;;;;;;;14.40;82.70;;;;;;5014048;28;20035;-93
2021/12/14 11:03:18;;;;;;;;;;;14.40;81.90;;;;;;5016424;28;20354;-90
2021/12/14 11:05:46;;;;;;;;;;;14.00;81.30;;;;;;5015326;28;20282;-91
2021/12/14 11:08:32;;;;;;;;;;;12.60;84.40;;;;;;5014203;28;19916;-91
2021/12/14 11:10:58;;;;;;;;;;;11.60;88.50;;;;;;5035178;28;20393;-91
2021/12/14 11:13:25;;;;;;;;;;;11.10;90.90;;;;;;5015766;28;20339;-91
2021/12/14 11:15:52;;;;;;;;;;;10.80;92.40;;;;;;5007374;28;20280;-92
2021/12/14 11:18:20;;;;;;;;;;;10.40;93.90;;;;;;5014435;28;19905;-90
2021/12/14 11:20:49;;;;;;;;;;;10.20;94.40;;;;;;5017876;28;19916;-91
2021/12/14 11:23:22;;;;;;;;;;;10.00;95.30;;;;;;5017469;28;19905;-91
2021/12/14 11:25:54;;;;;;;;;;;9.90;96.40;;;;;;5020187;28;20019;-91
2021/12/14 11:28:23;;;;;;;;;;;10.00;97.80;;;;;;5019418;28;19912;-90
2021/12/14 11:30:52;;;;;;;;;;;9.70;99.80;;;;;;5015670;28;19958;-90
2021/12/14 11:33:19;;;;;;;;;;;9.50;99.90;;;;;;5015805;28;19905;-90
2021/12/14 11:35:54;;;;;;;;;;;9.40;99.90;;;;;;5025787;28;19916;-90
2021/12/14 11:38:35;;;;;;;;;;;9.40;99.90;;;;;;5017476;28;19913;-90
2021/12/14 11:41:19;;;;;;;;;;;9.30;99.90;;;;;;5022234;28;19909;-90
2021/12/14 11:44:00;;;;;;;;;;;9.20;99.90;;;;;;5026874;28;19909;-90
2021/12/14 11:46:27;;;;;;;;;;;9.00;99.90;;;;;;5039825;28;19909;-91
2021/12/14 11:48:55;;;;;;;;;;;9.10;99.90;;;;;;5039578;28;19916;-90
2021/12/14 11:51:22;;;;;;;;;;;9.20;99.90;;;;;;5028273;28;19962;-90
2021/12/14 11:53:50;;;;;;;;;;;9.20;99.90;;;;;;5019344;28;19984;-90
2021/12/14 11:56:17;;;;;;;;;;;8.90;99.90;;;;;;5021918;28;19951;-90
2021/12/14 11:58:50;;;;;;;;;;;8.90;99.90;;;;;;5018912;28;19905;-91
2021/12/14 12:01:31;;;;;;;;;;;8.90;99.90;;;;;;5018576;28;19905;-91
2021/12/14 12:04:00;;;;;;;;;;;8.80;99.90;;;;;;5028233;28;19984;-91
2021/12/14 12:09:33;;;;;;;;;;;8.90;99.90;;;;;;5074525;28;19913;-94
2021/12/14 12:12:05;;;;;;;;;;;9.00;99.90;;;;;;5061717;22;19921;-77
2021/12/14 12:14:37;;;;;;;;;;;8.70;99.90;;;;;;5011826;28;19909;-76
2021/12/14 12:17:08;;;;;;;;;;;8.80;99.90;;;;;;5033397;28;19913;-77
2021/12/14 12:19:34;;;;;;;;;;;8.60;99.90;;;;;;5033231;28;19915;-76
2021/12/14 12:22:07;;;;;;;;;;;8.60;99.90;;;;;;5048497;28;19952;-76
2021/12/14 12:24:36;;;;;;;;;;;8.60;99.90;;;;;;5033236;28;19905;-76
2021/12/14 12:27:20;;;;;;;;;;;8.70;99.90;;;;;;5015126;28;20081;-77
2021/12/14 12:29:47;;;;;;;;;;;8.70;99.90;;;;;;5014923;28;19952;-77
2021/12/14 12:32:21;;;;;;;;;;;8.70;99.90;;;;;;5032374;28;20664;-77
2021/12/14 12:34:48;;;;;;;;;;;8.60;99.90;;;;;;5033925;28;19911;-77
2021/12/14 12:37:14;;;;;;;;;;;8.60;99.90;;;;;;5015562;28;19905;-77
2021/12/14 12:39:46;;;;;;;;;;;8.60;99.90;;;;;;5033795;28;19911;-77
2021/12/14 12:42:13;;;;;;;;;;;8.50;99.90;;;;;;5034732;28;19963;-77
2021/12/14 12:44:40;;;;;;;;;;;8.50;99.90;;;;;;5032420;28;19951;-77
2021/12/14 12:47:15;;;;;;;;;;;8.30;99.90;;;;;;5031080;28;19909;-77
2021/12/14 12:49:42;;;;;;;;;;;8.30;99.90;;;;;;5033365;28;19909;-77
2021/12/14 12:52:16;;;;;;;;;;;8.30;99.90;;;;;;5031901;28;19905;-77
2021/12/14 12:55:00;;;;;;;;;;;8.20;99.90;;;;;;5031933;28;19928;-77
2021/12/14 12:57:38;;;;;;;;;;;8.30;99.90;;;;;;5030818;28;19905;-76
2021/12/14 13:00:09;;;;;;;;;;;8.30;99.90;;;;;;5031207;28;19913;-77
2021/12/14 13:02:43;;;;;;;;;;;8.30;99.90;;;;;;5035255;28;19905;-78
2021/12/14 13:05:28;;;;;;;;;;;8.10;99.90;;;;;;5025782;28;19927;-77
2021/12/14 13:07:56;;;;;;;;;;;8.10;99.90;;;;;;5044179;28;20007;-78
2021/12/14 13:10:24;;;;;;;;;;;7.90;99.90;;;;;;5042812;28;19927;-78
2021/12/14 13:12:55;;;;;;;;;;;7.80;99.90;;;;;;5022775;28;20335;-78
2021/12/14 13:15:33;;;;;;;;;;;7.60;99.90;;;;;;5041586;28;19994;-77
2021/12/14 13:18:18;;;;;;;;;;;7.60;99.90;;;;;;5041392;28;19912;-77
2021/12/14 13:20:45;;;;;;;;;;;7.60;99.90;;;;;;5042539;28;19917;-77
2021/12/14 13:23:11;;;;;;;;;;;7.80;99.90;;;;;;5042424;28;19909;-77
2021/12/14 13:25:38;;;;;;;;;;;7.90;99.90;;;;;;5059579;28;20301;-77
2021/12/14 13:28:04;;;;;;;;;;;7.90;99.90;;;;;;5030346;28;19909;-77
2021/12/14 13:30:30;;;;;;;;;;;7.80;99.90;;;;;;5033205;28;19936;-76
2021/12/14 13:32:56;;;;;;;;;;;7.80;99.90;;;;;;5033151;28;19905;-76
2021/12/14 13:35:24;;;;;;;;;;;7.70;99.90;;;;;;5031058;28;19911;-76
2021/12/14 13:38:02;;;;;;;;;;;7.80;99.90;;;;;;5031380;28;19912;-76
2021/12/14 13:40:28;;;;;;;;;;;7.80;99.90;;;;;;5031819;28;19912;-76
2021/12/14 13:42:53;;;;;;;;;;;7.90;99.90;;;;;;5030884;28;19909;-76
2021/12/14 13:45:23;;;;;;;;;;;7.80;99.90;;;;;;5031395;28;20155;-76
2021/12/14 13:47:49;;;;;;;;;;;7.70;99.90;;;;;;5032247;28;19916;-76
2021/12/14 13:50:21;;;;;;;;;;;7.70;99.90;;;;;;5031286;28;19905;-76
2021/12/14 13:52:48;;;;;;;;;;;7.50;99.90;;;;;;5031383;28;19905;-76
2021/12/14 13:55:13;;;;;;;;;;;7.50;99.90;;;;;;5017146;28;19948;-77
2021/12/14 13:57:41;;;;;;;;;;;7.40;99.90;;;;;;5032356;28;20261;-75
2021/12/14 14:00:09;;;;;;;;;;;7.30;99.90;;;;;;5030779;28;19912;-77
2021/12/14 14:02:35;;;;;;;;;;;7.20;99.90;;;;;;5026864;28;19909;-77
2021/12/14 14:05:02;;;;;;;;;;;7.20;99.90;;;;;;5033823;28;19916;-77
2021/12/14 14:07:27;;;;;;;;;;;7.20;99.90;;;;;;5032055;28;20312;-77
2021/12/14 14:09:53;;;;;;;;;;;7.10;99.90;;;;;;5035011;28;19905;-77
2021/12/14 14:12:23;;;;;;;;;;;7.10;99.90;;;;;;5029920;28;19912;-77
2021/12/14 14:14:49;;;;;;;;;;;7.10;99.90;;;;;;5029968;28;19905;-77
2021/12/14 14:17:20;;;;;;;;;;;7.10;99.90;;;;;;5029812;28;20050;-75
2021/12/14 14:19:47;;;;;;;;;;;7.20;99.90;;;;;;5031105;28;19905;-76
2021/12/14 14:22:15;;;;;;;;;;;7.20;99.90;;;;;;5031489;28;20356;-76
2021/12/14 14:24:43;;;;;;;;;;;7.40;99.90;;;;;;5013220;28;19909;-76
2021/12/14 14:27:27;;;;;;;;;;;7.70;99.90;;;;;;5030922;28;19909;-75
2021/12/14 14:29:52;;;;;;;;;;;7.60;99.90;;;;;;5030897;28;19905;-76
2021/12/14 14:32:35;;;;;;;;;;;7.80;99.90;;;;;;5032053;28;19905;-76
2021/12/14 14:35:03;;;;;;;;;;;7.80;99.90;;;;;;5029834;28;20416;-76
2021/12/14 14:37:30;;;;;;;;;;;7.70;99.90;;;;;;5031153;28;19912;-76
2021/12/14 14:40:12;;;;;;;;;;;7.60;99.90;;;;;;5028769;28;19905;-76
2021/12/14 14:42:48;;;;;;;;;;;7.50;99.90;;;;;;5030360;28;19909;-78
2021/12/14 14:45:24;;;;;;;;;;;7.40;99.90;;;;;;5026571;28;19973;-77
2021/12/14 14:47:51;;;;;;;;;;;7.30;99.90;;;;;;5033100;28;19913;-78
2021/12/14 14:50:26;;;;;;;;;;;7.30;99.90;;;;;;5033113;28;19905;-79
2021/12/14 14:53:04;;;;;;;;;;;7.20;99.90;;;;;;5016186;28;19912;-78
2021/12/14 14:55:36;;;;;;;;;;;7.20;99.90;;;;;;5032125;28;19984;-76
2021/12/14 14:58:06;;;;;;;;;;;7.30;99.90;;;;;;5035450;28;19909;-77
2021/12/14 15:00:38;;;;;;;;;;;7.30;99.90;;;;;;5033663;28;19960;-76
2021/12/14 15:03:07;;;;;;;;;;;7.10;99.90;;;;;;5034561;28;20423;-76
2021/12/14 15:05:36;;;;;;;;;;;6.90;99.90;;;;;;5032894;28;20002;-76
2021/12/14 15:08:21;;;;;;;;;;;6.80;99.90;;;;;;5034227;28;19916;-76
2021/12/14 15:10:55;;;;;;;;;;;6.60;99.90;;;;;;5018379;28;19959;-76
2021/12/14 15:13:45;;;;;;;;;;;6.60;99.90;;;;;;5033031;28;19924;-76
2021/12/14 15:16:22;;;;;;;;;;;6.50;99.90;;;;;;5032026;28;19967;-76
2021/12/14 15:18:57;;;;;;;;;;;6.50;99.90;;;;;;5034464;28;19905;-77
2021/12/14 15:21:41;;;;;;;;;;;6.70;99.90;;;;;;5034013;28;19992;-76
2021/12/14 15:24:25;;;;;;;;;;;6.70;99.90;;;;;;5034368;28;20304;-75
2021/12/14 15:27:09;;;;;;;;;;;6.70;99.90;;;;;;5033796;28;20478;-76